Time;durP1;ratioP1;P1;durP2;ratioP2;P2;SDS_P1;SDS_P2;PMS_P1;PMS_P2;Temp;Humidity;BMP_temperature;BMP_pressure;BME280_temperature;BME280_humidity;BME280_pressure;Samples;Min_cycle;Max_cycle;Signal;HPM_P1;HPM_P2
2023/01/18 00:00:00;;;;;;;12.10;6.27;;;3.70;70.40;;;;;;5116823;28;20432;-64
2023/01/18 00:02:26;;;;;;;11.13;5.53;;;3.70;70.40;;;;;;5108056;28;20059;-64
2023/01/18 00:04:51;;;;;;;11.73;5.97;;;3.70;70.50;;;;;;5115464;28;20019;-64
2023/01/18 00:07:17;;;;;;;12.23;5.73;;;3.70;70.60;;;;;;5111204;28;20033;-64
2023/01/18 00:09:43;;;;;;;11.77;6.53;;;3.70;70.60;;;;;;5098380;28;20134;-65
2023/01/18 00:12:08;;;;;;;10.70;5.90;;;3.70;70.60;;;;;;5110142;28;20447;-65
2023/01/18 00:14:34;;;;;;;10.17;5.63;;;3.70;70.70;;;;;;5116494;28;20036;-64
2023/01/18 00:17:00;;;;;;;11.53;6.17;;;3.60;70.60;;;;;;5111950;28;20027;-65
2023/01/18 00:19:25;;;;;;;12.97;7.37;;;3.60;70.70;;;;;;5116656;28;20032;-62
2023/01/18 00:21:53;;;;;;;14.00;7.10;;;3.60;70.70;;;;;;5111742;28;20012;-64
2023/01/18 00:24:22;;;;;;;11.60;6.47;;;3.60;71.40;;;;;;5111624;28;20028;-63
2023/01/18 00:26:48;;;;;;;14.43;7.47;;;3.60;70.70;;;;;;5110409;28;20040;-63
2023/01/18 00:29:15;;;;;;;13.10;7.07;;;3.60;70.70;;;;;;5113707;28;20364;-63
2023/01/18 00:31:40;;;;;;;13.23;6.73;;;3.60;70.70;;;;;;5114606;28;20447;-63
2023/01/18 00:34:06;;;;;;;12.23;6.60;;;3.60;70.70;;;;;;5114297;28;20047;-63
2023/01/18 00:36:33;;;;;;;11.97;6.73;;;3.60;70.70;;;;;;5112765;28;20024;-63
2023/01/18 00:38:59;;;;;;;11.60;6.30;;;3.50;70.70;;;;;;5114251;28;20092;-63
2023/01/18 00:41:24;;;;;;;13.57;7.03;;;3.50;70.80;;;;;;5098079;28;20028;-62
2023/01/18 00:43:51;;;;;;;10.90;6.50;;;3.50;70.80;;;;;;5112537;28;20024;-63
2023/01/18 00:46:22;;;;;;;13.03;6.50;;;3.50;70.80;;;;;;5114589;28;20027;-63
2023/01/18 00:48:49;;;;;;;11.88;6.63;;;3.50;70.80;;;;;;5091321;28;20444;-63
2023/01/18 00:51:18;;;;;;;13.43;6.97;;;3.50;70.80;;;;;;5111735;28;20102;-63
2023/01/18 00:53:44;;;;;;;12.57;7.40;;;3.50;70.80;;;;;;5111734;28;20047;-63
2023/01/18 00:56:16;;;;;;;11.87;6.23;;;3.50;70.80;;;;;;5112682;28;20067;-63
2023/01/18 00:58:42;;;;;;;11.77;6.73;;;3.50;70.80;;;;;;5109496;28;20027;-63
2023/01/18 01:01:08;;;;;;;12.47;6.70;;;3.50;70.90;;;;;;5113571;28;20045;-63
2023/01/18 01:06:45;;;;;;;11.77;6.13;;;3.50;70.90;;;;;;5098681;28;20103;-63
2023/01/18 01:09:23;;;;;;;12.15;6.30;;;3.40;70.90;;;;;;5105020;28;20031;-63
2023/01/18 01:28:23;;;;;;;13.33;7.10;;;3.40;71.10;;;;;;5111802;28;20027;-63
2023/01/18 01:30:49;;;;;;;12.57;6.83;;;3.40;71.10;;;;;;5109216;28;20451;-64
2023/01/18 01:33:16;;;;;;;13.30;6.90;;;3.40;71.10;;;;;;5100419;28;20043;-63
2023/01/18 01:35:43;;;;;;;13.50;6.97;;;3.40;71.10;;;;;;5112311;28;20031;-64
2023/01/18 01:38:08;;;;;;;14.93;7.20;;;3.40;71.10;;;;;;5096655;28;20015;-64
2023/01/18 01:40:34;;;;;;;11.77;6.63;;;3.40;71.10;;;;;;5092775;28;20020;-64
2023/01/18 01:43:00;;;;;;;14.07;7.90;;;3.40;71.20;;;;;;5114713;28;20474;-63
2023/01/18 01:45:28;;;;;;;13.70;7.93;;;3.40;71.10;;;;;;5105817;28;20023;-64
2023/01/18 01:47:56;;;;;;;13.20;6.63;;;3.40;71.20;;;;;;5114582;28;20057;-64
2023/01/18 01:50:32;;;;;;;13.37;7.03;;;3.40;71.10;;;;;;5112266;28;20069;-63
2023/01/18 01:52:58;;;;;;;14.73;7.00;;;3.40;71.10;;;;;;5114001;28;20070;-63
2023/01/18 01:55:42;;;;;;;11.93;6.57;;;3.40;71.20;;;;;;5100282;28;20052;-64
2023/01/18 01:58:20;;;;;;;11.50;6.37;;;3.40;71.20;;;;;;5105976;28;20031;-64
2023/01/18 02:00:46;;;;;;;11.43;6.40;;;3.30;71.20;;;;;;5101640;28;20096;-63
2023/01/18 02:03:18;;;;;;;14.47;7.00;;;3.40;71.30;;;;;;5102533;28;20483;-63
2023/01/18 02:05:47;;;;;;;13.15;7.32;;;3.30;71.30;;;;;;5105084;28;20027;-64
2023/01/18 02:08:21;;;;;;;12.30;7.07;;;3.30;71.30;;;;;;5105598;28;20076;-64
2023/01/18 02:10:51;;;;;;;13.57;7.20;;;3.30;71.30;;;;;;5082678;28;20039;-63
2023/01/18 02:13:19;;;;;;;10.70;6.03;;;3.30;71.30;;;;;;5114005;28;20030;-64
2023/01/18 02:16:19;;;;;;;14.37;7.30;;;3.30;71.30;;;;;;5085731;28;20101;-64
2023/01/18 02:18:48;;;;;;;13.33;6.70;;;3.30;71.30;;;;;;5104018;28;20061;-64
2023/01/18 02:21:36;;;;;;;13.77;6.93;;;3.30;71.30;;;;;;5102563;28;20440;-63
2023/01/18 02:24:20;;;;;;;13.37;7.07;;;3.30;71.40;;;;;;5112791;28;20097;-63
2023/01/18 02:26:56;;;;;;;11.77;6.30;;;3.30;71.30;;;;;;5102281;28;20333;-63
2023/01/18 02:29:39;;;;;;;13.50;7.03;;;3.30;71.30;;;;;;5113272;28;20032;-63
2023/01/18 02:32:29;;;;;;;12.57;6.37;;;3.30;71.40;;;;;;5102558;28;20049;-64
2023/01/18 02:35:09;;;;;;;13.50;7.13;;;3.30;71.40;;;;;;5098201;28;20105;-64
2023/01/18 02:37:55;;;;;;;12.63;6.60;;;3.30;71.40;;;;;;5103269;28;20023;-64
2023/01/18 02:40:21;;;;;;;13.63;7.03;;;3.20;71.40;;;;;;5111127;28;20020;-64
2023/01/18 02:48:37;;;;;;;12.80;6.53;;;3.20;71.50;;;;;;5108590;28;20429;-63
2023/01/18 02:51:03;;;;;;;11.60;7.00;;;3.20;71.60;;;;;;5103388;28;20110;-63
2023/01/18 02:53:31;;;;;;;11.40;6.13;;;3.10;71.50;;;;;;5107552;28;20149;-64
2023/01/18 02:56:07;;;;;;;12.37;6.97;;;3.20;71.70;;;;;;5099530;28;20020;-64
2023/01/18 02:58:58;;;;;;;13.13;6.97;;;3.20;71.70;;;;;;5107841;28;20439;-63
2023/01/18 03:01:39;;;;;;;12.70;6.90;;;3.20;71.70;;;;;;5103507;28;20024;-64
2023/01/18 03:04:13;;;;;;;11.23;6.73;;;3.20;71.70;;;;;;5116021;28;20019;-63
2023/01/18 03:06:43;;;;;;;11.17;6.30;;;3.20;71.70;;;;;;5115461;28;20038;-63
2023/01/18 03:09:09;;;;;;;16.07;7.20;;;3.10;71.70;;;;;;5112957;28;20339;-64
2023/01/18 03:11:39;;;;;;;12.50;6.83;;;3.10;71.70;;;;;;5101156;28;20028;-63
2023/01/18 03:14:16;;;;;;;12.90;7.17;;;3.20;71.80;;;;;;5110909;28;20035;-63
2023/01/18 03:17:06;;;;;;;13.37;7.57;;;3.10;71.80;;;;;;5116996;27;20567;-64
2023/01/18 03:20:07;;;;;;;13.97;6.93;;;3.10;71.70;;;;;;5111788;28;20039;-63
2023/01/18 03:25:36;;;;;;;11.50;6.17;;;3.10;71.90;;;;;;5112009;28;20024;-64
2023/01/18 03:33:51;;;;;;;12.45;6.88;;;3.10;71.90;;;;;;5104627;28;20054;-63
2023/01/18 03:36:25;;;;;;;11.97;7.00;;;3.10;71.90;;;;;;5112776;28;20054;-63
2023/01/18 03:39:06;;;;;;;12.63;6.77;;;3.00;71.90;;;;;;5109201;28;20110;-63
2023/01/18 03:41:39;;;;;;;11.73;6.17;;;3.00;71.90;;;;;;5110182;28;20401;-63
2023/01/18 03:44:15;;;;;;;11.03;6.40;;;3.00;71.90;;;;;;5116773;28;20412;-63
2023/01/18 03:46:42;;;;;;;14.67;7.60;;;3.00;72.00;;;;;;5111347;28;20049;-63
2023/01/18 03:49:09;;;;;;;10.13;6.17;;;3.00;72.00;;;;;;5110478;28;20360;-63
2023/01/18 03:51:53;;;;;;;13.23;7.00;;;3.00;72.00;;;;;;5106025;28;20020;-63
2023/01/18 03:54:26;;;;;;;11.53;6.13;;;3.00;72.10;;;;;;5111443;28;20363;-63
2023/01/18 03:57:18;;;;;;;11.27;6.30;;;3.00;72.10;;;;;;5112040;28;20020;-63
2023/01/18 03:59:45;;;;;;;13.30;6.97;;;2.90;72.00;;;;;;5108652;28;20456;-63
2023/01/18 04:02:10;;;;;;;13.80;7.17;;;2.90;72.10;;;;;;5110614;28;20022;-63
2023/01/18 04:04:36;;;;;;;12.87;6.43;;;2.90;72.10;;;;;;5116777;28;20364;-63
2023/01/18 04:07:02;;;;;;;13.10;6.67;;;2.90;72.10;;;;;;5110718;28;20040;-63
2023/01/18 04:09:28;;;;;;;12.27;6.80;;;2.90;72.10;;;;;;5113055;28;20046;-63
2023/01/18 04:11:54;;;;;;;13.60;6.07;;;2.90;72.10;;;;;;5113569;28;20024;-63
2023/01/18 04:14:20;;;;;;;12.83;6.27;;;2.90;72.20;;;;;;5116192;28;20082;-63
2023/01/18 04:16:45;;;;;;;13.97;6.80;;;2.90;72.20;;;;;;5110914;28;20364;-64
2023/01/18 04:19:11;;;;;;;12.00;6.87;;;2.90;72.20;;;;;;5114038;28;20024;-63
2023/01/18 04:21:37;;;;;;;13.03;6.10;;;2.90;72.20;;;;;;5111626;28;20031;-64
2023/01/18 04:24:04;;;;;;;13.37;7.67;;;2.90;72.20;;;;;;5113582;28;20139;-63
2023/01/18 04:26:30;;;;;;;15.77;7.23;;;2.90;72.20;;;;;;5110062;28;20016;-63
2023/01/18 04:28:55;;;;;;;13.87;7.00;;;2.90;72.20;;;;;;5097911;28;20320;-64
2023/01/18 04:31:21;;;;;;;11.83;6.50;;;2.80;72.20;;;;;;5101983;28;20030;-63
2023/01/18 04:33:50;;;;;;;15.13;6.93;;;2.80;72.20;;;;;;5114853;28;20376;-63
2023/01/18 04:36:17;;;;;;;11.97;6.73;;;2.80;72.20;;;;;;5111272;28;20046;-63
2023/01/18 04:38:42;;;;;;;12.77;7.03;;;2.80;72.30;;;;;;5090945;28;20027;-63
2023/01/18 04:41:08;;;;;;;10.07;6.43;;;2.80;72.30;;;;;;5105061;28;20027;-63
2023/01/18 04:43:34;;;;;;;10.90;6.30;;;2.80;72.40;;;;;;5106658;28;20537;-63
2023/01/18 04:46:00;;;;;;;13.33;7.10;;;2.80;72.40;;;;;;5112869;28;20020;-63
2023/01/18 04:48:26;;;;;;;11.33;6.53;;;2.80;72.40;;;;;;5114243;28;20471;-64
2023/01/18 04:50:52;;;;;;;12.47;6.70;;;2.80;72.40;;;;;;5110068;28;20048;-63
2023/01/18 04:53:18;;;;;;;11.37;5.90;;;2.80;72.30;;;;;;5107463;28;20024;-63
2023/01/18 04:55:44;;;;;;;10.77;6.30;;;2.80;72.40;;;;;;5114989;28;20059;-63
2023/01/18 04:58:10;;;;;;;13.43;6.60;;;2.80;72.40;;;;;;5113834;28;20020;-64
2023/01/18 05:00:38;;;;;;;10.70;6.20;;;2.80;72.40;;;;;;5115421;28;20367;-63
2023/01/18 05:03:09;;;;;;;11.10;6.57;;;2.80;72.50;;;;;;5106622;28;20381;-63
2023/01/18 05:05:35;;;;;;;12.32;6.30;;;2.70;72.40;;;;;;5113364;28;20046;-63
2023/01/18 05:08:01;;;;;;;12.83;6.70;;;2.70;72.40;;;;;;5087114;28;20024;-63
2023/01/18 05:10:27;;;;;;;12.87;6.80;;;2.80;72.50;;;;;;5112439;28;20432;-63
2023/01/18 05:12:53;;;;;;;13.20;6.93;;;2.80;72.60;;;;;;5085800;28;20059;-63
2023/01/18 05:15:19;;;;;;;12.93;6.97;;;2.80;72.50;;;;;;5109561;28;20062;-63
2023/01/18 05:17:45;;;;;;;13.10;6.83;;;2.80;72.50;;;;;;5111108;28;20035;-63
2023/01/18 05:20:12;;;;;;;10.03;5.83;;;2.80;72.60;;;;;;5107411;28;20084;-63
2023/01/18 05:22:37;;;;;;;11.93;6.80;;;2.80;72.40;;;;;;5092328;28;20097;-63
2023/01/18 05:25:04;;;;;;;12.60;6.80;;;2.80;72.50;;;;;;5084784;28;20440;-63
2023/01/18 05:27:30;;;;;;;11.73;6.67;;;2.80;72.50;;;;;;5106923;28;20114;-63
2023/01/18 05:29:56;;;;;;;11.33;6.17;;;2.80;72.60;;;;;;5096679;28;20118;-63
2023/01/18 05:32:22;;;;;;;11.07;6.40;;;2.70;72.60;;;;;;5112701;28;20032;-63
2023/01/18 05:34:48;;;;;;;11.67;6.77;;;2.70;72.70;;;;;;5107299;28;20024;-63
2023/01/18 05:37:14;;;;;;;10.57;6.10;;;2.70;72.70;;;;;;5104683;28;20387;-63
2023/01/18 05:39:40;;;;;;;11.07;6.00;;;2.70;72.60;;;;;;5110906;27;20106;-63
2023/01/18 05:42:07;;;;;;;11.13;6.40;;;2.70;72.70;;;;;;5111707;28;20160;-62
2023/01/18 05:44:33;;;;;;;13.87;6.73;;;2.70;72.70;;;;;;5113498;27;20046;-63
2023/01/18 05:47:00;;;;;;;11.07;6.03;;;2.70;72.80;;;;;;5100037;27;20036;-63
2023/01/18 05:49:27;;;;;;;13.27;6.60;;;2.70;72.70;;;;;;5093106;27;20043;-63
2023/01/18 05:51:53;;;;;;;11.33;6.67;;;2.70;72.70;;;;;;5105366;27;20380;-63
2023/01/18 05:54:18;;;;;;;13.63;6.40;;;2.70;72.70;;;;;;5106026;27;20043;-63
2023/01/18 05:56:44;;;;;;;11.03;6.37;;;2.70;72.70;;;;;;5110696;28;20031;-63
2023/01/18 05:59:10;;;;;;;12.20;7.03;;;2.70;72.70;;;;;;5111662;27;20088;-62
2023/01/18 06:01:36;;;;;;;13.77;6.53;;;2.70;72.70;;;;;;5108094;27;20047;-63
2023/01/18 06:04:02;;;;;;;11.00;6.03;;;2.70;72.80;;;;;;5114362;27;20129;-63
2023/01/18 06:06:27;;;;;;;11.13;6.00;;;2.70;72.80;;;;;;5105706;27;20473;-64
2023/01/18 06:08:54;;;;;;;12.60;6.20;;;2.70;72.80;;;;;;5107921;28;20028;-63
2023/01/18 06:11:19;;;;;;;11.13;6.37;;;2.70;72.80;;;;;;5113430;28;20077;-64
2023/01/18 06:13:45;;;;;;;11.80;6.77;;;2.70;72.90;;;;;;5093655;28;20036;-63
2023/01/18 06:16:11;;;;;;;10.40;6.03;;;2.70;72.90;;;;;;5108070;28;20028;-63
2023/01/18 06:18:38;;;;;;;11.30;6.57;;;2.70;72.90;;;;;;5113232;28;20034;-64
2023/01/18 06:21:04;;;;;;;11.60;6.20;;;2.70;72.90;;;;;;5111355;28;20106;-64
2023/01/18 06:23:30;;;;;;;14.33;6.03;;;2.70;72.90;;;;;;5119326;28;20119;-63
2023/01/18 06:25:56;;;;;;;12.23;6.10;;;2.70;72.90;;;;;;5112361;28;20110;-63
2023/01/18 06:28:22;;;;;;;13.53;5.63;;;2.70;72.90;;;;;;5103773;28;20085;-63
2023/01/18 06:30:51;;;;;;;11.93;6.60;;;2.70;72.90;;;;;;5113773;28;20023;-64
2023/01/18 06:33:17;;;;;;;10.23;5.73;;;2.60;72.90;;;;;;5097968;28;20104;-63
2023/01/18 06:35:43;;;;;;;12.60;7.50;;;2.70;72.90;;;;;;5113977;28;20035;-63
2023/01/18 06:38:09;;;;;;;11.67;6.00;;;2.60;72.90;;;;;;5114131;28;20016;-64
2023/01/18 06:40:35;;;;;;;14.67;7.07;;;2.60;72.90;;;;;;5118119;28;20193;-63
2023/01/18 06:43:03;;;;;;;13.57;6.87;;;2.60;73.00;;;;;;5114775;28;20106;-63
2023/01/18 06:45:29;;;;;;;11.30;6.07;;;2.60;73.00;;;;;;5100209;28;20027;-63
2023/01/18 06:47:55;;;;;;;12.83;6.40;;;2.60;73.00;;;;;;5104611;28;20120;-63
2023/01/18 06:50:21;;;;;;;12.27;6.80;;;2.50;73.00;;;;;;5118412;28;20029;-63
2023/01/18 06:52:47;;;;;;;10.93;6.13;;;2.50;73.00;;;;;;5115813;28;20028;-63
2023/01/18 06:55:14;;;;;;;10.47;5.53;;;2.50;73.00;;;;;;5094220;28;20027;-64
2023/01/18 06:57:40;;;;;;;12.23;6.17;;;2.50;73.10;;;;;;5109610;28;20356;-63
2023/01/18 07:00:07;;;;;;;12.87;6.67;;;2.50;73.10;;;;;;5114351;28;20032;-63
2023/01/18 07:02:34;;;;;;;10.47;5.77;;;2.50;73.10;;;;;;5115552;28;20471;-63
2023/01/18 07:05:00;;;;;;;12.90;6.37;;;2.50;73.20;;;;;;5100915;28;20065;-63
2023/01/18 07:07:26;;;;;;;11.83;6.00;;;2.50;73.20;;;;;;5130510;27;20024;-63
2023/01/18 07:09:52;;;;;;;10.17;5.77;;;2.50;73.20;;;;;;5105663;28;20027;-63
2023/01/18 07:12:18;;;;;;;11.00;5.87;;;2.50;73.20;;;;;;5109668;28;20516;-65
2023/01/18 07:14:44;;;;;;;12.50;6.33;;;2.50;73.20;;;;;;5108830;28;20039;-65
2023/01/18 07:17:10;;;;;;;12.13;6.77;;;2.50;73.20;;;;;;5112967;28;20399;-65
2023/01/18 07:19:35;;;;;;;11.83;6.17;;;2.60;73.00;;;;;;5111634;28;20032;-64
2023/01/18 07:22:01;;;;;;;12.30;6.47;;;2.60;73.00;;;;;;5111275;28;20042;-65
2023/01/18 07:24:27;;;;;;;11.07;5.93;;;2.60;72.90;;;;;;5111875;28;20024;-64
2023/01/18 07:26:54;;;;;;;12.10;6.43;;;2.60;72.80;;;;;;5107017;28;20023;-64
2023/01/18 07:29:20;;;;;;;12.97;6.20;;;2.60;72.90;;;;;;5112747;28;20027;-66
2023/01/18 07:31:46;;;;;;;10.63;6.03;;;2.60;72.90;;;;;;5095731;28;20422;-67
2023/01/18 07:34:13;;;;;;;11.87;6.53;;;2.60;73.00;;;;;;5115939;28;20059;-67
2023/01/18 07:36:40;;;;;;;12.80;7.17;;;2.60;73.00;;;;;;5114834;28;20367;-67
2023/01/18 07:39:08;;;;;;;12.80;6.37;;;2.50;73.00;;;;;;5116349;28;20025;-67
2023/01/18 07:41:34;;;;;;;11.83;5.93;;;2.60;73.10;;;;;;5116515;28;20027;-67
2023/01/18 07:44:01;;;;;;;11.37;6.23;;;2.50;73.00;;;;;;5115315;27;20020;-67
2023/01/18 07:46:27;;;;;;;11.53;6.13;;;2.50;73.00;;;;;;5116281;27;20121;-67
2023/01/18 07:48:54;;;;;;;12.93;6.30;;;2.50;73.00;;;;;;5116226;28;20039;-67
2023/01/18 07:51:21;;;;;;;11.13;6.13;;;2.50;73.00;;;;;;5116187;28;20102;-67
2023/01/18 07:53:48;;;;;;;11.73;6.43;;;2.50;73.00;;;;;;5116735;28;20040;-68
2023/01/18 07:56:16;;;;;;;11.50;6.23;;;2.50;73.10;;;;;;5071818;28;20036;-67
2023/01/18 07:58:42;;;;;;;12.80;6.10;;;2.50;73.10;;;;;;5115078;28;20062;-68
2023/01/18 08:01:13;;;;;;;12.00;5.80;;;2.50;73.10;;;;;;5098813;28;20440;-67
2023/01/18 08:03:42;;;;;;;11.77;6.30;;;2.50;73.10;;;;;;5116493;28;20050;-68
2023/01/18 08:06:11;;;;;;;10.50;5.80;;;2.60;73.20;;;;;;5096395;28;20046;-68
2023/01/18 08:08:37;;;;;;;12.63;7.13;;;2.50;73.10;;;;;;5102080;28;20024;-64
2023/01/18 08:11:06;;;;;;;12.73;6.47;;;2.60;73.10;;;;;;5115681;28;20368;-66
2023/01/18 08:13:33;;;;;;;11.57;6.20;;;2.60;73.10;;;;;;5108632;28;20039;-68
2023/01/18 08:16:01;;;;;;;12.90;6.70;;;2.60;73.00;;;;;;5101821;27;20036;-67
2023/01/18 08:18:27;;;;;;;11.97;6.80;;;2.60;73.00;;;;;;5094688;28;20036;-68
2023/01/18 08:20:53;;;;;;;14.53;6.23;;;2.60;73.00;;;;;;5117114;27;20082;-67
2023/01/18 08:23:19;;;;;;;11.83;6.33;;;2.70;73.00;;;;;;5122526;27;20420;-68
2023/01/18 08:25:46;;;;;;;18.13;7.40;;;2.60;72.90;;;;;;5122476;27;20024;-67
2023/01/18 08:28:12;;;;;;;11.43;7.07;;;2.60;72.90;;;;;;5098006;28;20123;-68
2023/01/18 08:30:42;;;;;;;13.93;6.73;;;2.70;72.90;;;;;;5117996;27;20027;-67
2023/01/18 08:33:08;;;;;;;12.17;6.73;;;2.70;72.90;;;;;;5123484;27;20051;-68
2023/01/18 08:35:41;;;;;;;12.63;7.17;;;2.70;72.80;;;;;;5105060;27;20583;-68
2023/01/18 08:38:08;;;;;;;11.33;6.27;;;2.80;72.80;;;;;;5107241;27;20396;-67
2023/01/18 08:40:34;;;;;;;11.77;6.53;;;2.90;72.80;;;;;;5111264;27;20531;-68
2023/01/18 08:43:02;;;;;;;11.40;6.57;;;2.90;72.70;;;;;;5106597;27;20032;-68
2023/01/18 08:45:28;;;;;;;10.80;6.00;;;2.90;72.60;;;;;;5084243;28;20111;-68
2023/01/18 08:47:59;;;;;;;12.97;7.17;;;2.90;72.60;;;;;;5106393;28;20035;-66
2023/01/18 08:50:26;;;;;;;12.77;6.78;;;3.00;72.60;;;;;;5094249;28;20019;-68
2023/01/18 08:52:52;;;;;;;13.53;6.93;;;3.00;72.50;;;;;;5110675;28;20028;-68
2023/01/18 08:55:19;;;;;;;11.70;6.90;;;3.10;72.40;;;;;;5098431;28;20348;-67
2023/01/18 08:57:45;;;;;;;12.57;7.20;;;3.20;72.20;;;;;;5088909;28;20063;-68
2023/01/18 09:00:11;;;;;;;12.17;6.63;;;3.40;72.10;;;;;;5107315;28;20074;-68
2023/01/18 09:02:38;;;;;;;11.83;6.70;;;3.50;71.90;;;;;;5112903;28;20011;-68
2023/01/18 09:05:04;;;;;;;14.43;7.43;;;3.50;71.60;;;;;;5094477;28;20063;-68
2023/01/18 09:07:30;;;;;;;12.77;7.40;;;3.60;71.50;;;;;;5105442;28;20168;-67
2023/01/18 09:09:56;;;;;;;14.37;8.10;;;3.70;71.40;;;;;;5100647;28;20106;-67
2023/01/18 09:12:22;;;;;;;13.83;7.23;;;3.80;71.30;;;;;;5110004;28;20337;-67
2023/01/18 09:14:48;;;;;;;15.47;8.27;;;3.90;71.10;;;;;;5087634;28;20078;-67
2023/01/18 09:17:16;;;;;;;17.80;8.40;;;4.00;71.00;;;;;;5111430;28;20031;-64
2023/01/18 09:19:42;;;;;;;17.33;7.27;;;4.10;70.70;;;;;;5095052;28;20026;-65
2023/01/18 09:22:10;;;;;;;15.20;7.87;;;4.20;70.50;;;;;;5104857;28;20028;-65
2023/01/18 09:24:36;;;;;;;13.77;7.70;;;4.30;70.40;;;;;;5111435;28;20035;-65
2023/01/18 09:27:03;;;;;;;14.10;8.23;;;4.40;70.30;;;;;;5104071;28;20399;-67
2023/01/18 09:29:30;;;;;;;15.93;8.13;;;4.50;70.10;;;;;;5112596;28;20059;-66
2023/01/18 09:31:56;;;;;;;19.33;7.80;;;4.50;69.90;;;;;;5110483;27;20027;-65
2023/01/18 09:34:22;;;;;;;12.23;6.97;;;4.60;69.60;;;;;;5111418;28;20071;-64
2023/01/18 09:36:50;;;;;;;12.97;7.80;;;4.70;69.50;;;;;;5108500;28;20431;-64
2023/01/18 09:39:16;;;;;;;13.13;8.17;;;4.80;69.40;;;;;;5106026;27;20031;-64
2023/01/18 09:41:53;;;;;;;17.00;8.27;;;4.90;69.20;;;;;;5114085;27;20015;-64
2023/01/18 09:44:38;;;;;;;12.67;7.90;;;4.90;69.10;;;;;;5120889;27;20448;-65
2023/01/18 09:47:26;;;;;;;12.60;7.37;;;5.00;68.80;;;;;;5110991;27;20034;-65
2023/01/18 09:49:56;;;;;;;12.33;7.43;;;5.10;68.60;;;;;;5117709;27;20028;-65
2023/01/18 09:52:28;;;;;;;15.20;8.33;;;5.30;68.60;;;;;;5126886;27;20031;-64
2023/01/18 09:55:15;;;;;;;13.53;7.63;;;5.40;68.30;;;;;;5108881;27;20028;-65
2023/01/18 09:58:02;;;;;;;14.87;7.83;;;5.50;68.00;;;;;;5110822;27;20099;-65
2023/01/18 10:00:32;;;;;;;15.60;7.27;;;5.60;67.80;;;;;;5085677;27;20382;-65
2023/01/18 10:03:03;;;;;;;13.40;7.87;;;5.50;67.90;;;;;;5121850;27;20023;-65
2023/01/18 10:05:36;;;;;;;13.18;6.78;;;5.50;68.10;;;;;;5100774;28;20043;-65
2023/01/18 10:08:24;;;;;;;13.80;7.40;;;5.50;68.10;;;;;;5092172;28;20361;-67
2023/01/18 10:11:01;;;;;;;14.33;8.03;;;5.50;68.20;;;;;;5114331;27;20107;-64
2023/01/18 10:13:49;;;;;;;12.47;7.30;;;5.40;68.30;;;;;;5104201;28;20028;-64
2023/01/18 10:16:15;;;;;;;11.80;7.40;;;5.50;68.30;;;;;;5130445;28;20444;-66
2023/01/18 10:18:44;;;;;;;11.43;7.17;;;5.50;68.30;;;;;;5110619;28;20479;-66
2023/01/18 10:21:33;;;;;;;14.20;7.70;;;5.60;68.00;;;;;;5107329;28;20020;-66
2023/01/18 10:24:20;;;;;;;12.77;7.00;;;5.90;67.80;;;;;;5112285;28;20461;-66
2023/01/18 10:26:48;;;;;;;12.03;6.93;;;6.10;67.30;;;;;;5085325;28;20047;-66
2023/01/18 10:29:21;;;;;;;13.43;7.00;;;6.40;66.80;;;;;;5099968;28;20089;-66
2023/01/18 10:31:50;;;;;;;11.37;6.83;;;6.60;66.30;;;;;;5097646;28;20452;-66
2023/01/18 10:34:23;;;;;;;13.27;6.37;;;6.80;65.90;;;;;;5109928;28;20075;-66
2023/01/18 10:36:57;;;;;;;13.57;7.00;;;7.00;65.50;;;;;;5115061;28;20046;-66
2023/01/18 10:39:33;;;;;;;11.37;6.20;;;7.20;65.90;;;;;;5110665;28;20336;-65
2023/01/18 10:42:02;;;;;;;13.30;7.00;;;7.30;64.80;;;;;;5114561;28;20123;-67
2023/01/18 10:44:28;;;;;;;13.33;6.40;;;7.40;64.60;;;;;;5110112;28;20024;-66
2023/01/18 10:46:59;;;;;;;13.43;6.73;;;7.60;64.30;;;;;;5114946;28;20020;-66
2023/01/18 10:49:47;;;;;;;14.27;6.90;;;7.70;64.10;;;;;;5111677;28;20034;-66
2023/01/18 10:52:39;;;;;;;12.97;6.30;;;7.80;63.80;;;;;;5111515;28;20127;-66
2023/01/18 10:55:06;;;;;;;15.27;6.95;;;7.80;63.60;;;;;;5109251;28;20460;-66
2023/01/18 10:57:53;;;;;;;11.60;5.97;;;7.80;63.50;;;;;;5103746;28;20032;-65
2023/01/18 11:00:20;;;;;;;12.50;6.43;;;7.90;63.40;;;;;;5107324;28;20020;-66
2023/01/18 11:02:48;;;;;;;14.20;6.07;;;7.90;63.40;;;;;;5097485;28;20028;-65
2023/01/18 11:05:22;;;;;;;11.33;6.30;;;7.90;63.40;;;;;;5107862;28;20027;-66
2023/01/18 11:08:21;;;;;;;12.27;6.40;;;7.90;63.10;;;;;;5102641;28;20040;-67
2023/01/18 11:14:30;;;;;;;11.63;5.90;;;8.00;63.00;;;;;;5106245;28;20044;-68
2023/01/18 11:16:58;;;;;;;10.60;6.07;;;7.90;62.90;;;;;;5109973;28;20058;-67
2023/01/18 11:19:24;;;;;;;10.60;5.63;;;7.90;62.90;;;;;;5097111;28;20028;-67
2023/01/18 11:21:52;;;;;;;11.87;5.80;;;7.90;62.80;;;;;;5117136;28;20106;-67
2023/01/18 11:24:30;;;;;;;11.10;5.67;;;8.00;62.70;;;;;;5116393;28;20032;-67
2023/01/18 11:27:12;;;;;;;10.20;5.70;;;8.00;62.50;;;;;;5116833;28;20046;-67
2023/01/18 11:29:42;;;;;;;8.83;5.23;;;8.00;63.20;;;;;;5107734;28;20062;-67
2023/01/18 11:32:27;;;;;;;11.53;6.13;;;8.00;62.60;;;;;;5117021;28;20035;-69
2023/01/18 11:34:56;;;;;;;10.83;6.03;;;7.90;62.50;;;;;;5115280;28;20464;-68
2023/01/18 11:37:34;;;;;;;11.73;6.13;;;7.90;62.70;;;;;;5113595;28;20031;-68
2023/01/18 11:40:19;;;;;;;9.70;5.90;;;7.80;62.70;;;;;;5112622;28;20153;-68
2023/01/18 11:42:47;;;;;;;10.33;5.47;;;7.70;62.90;;;;;;5110101;27;20640;-68
2023/01/18 11:45:23;;;;;;;11.47;5.77;;;7.60;63.00;;;;;;5122941;27;20439;-66
2023/01/18 11:48:18;;;;;;;10.23;5.50;;;7.50;63.10;;;;;;5113265;28;20027;-65
2023/01/18 11:50:51;;;;;;;9.00;5.13;;;7.50;63.20;;;;;;5096355;28;20118;-66
2023/01/18 11:53:46;;;;;;;11.73;5.57;;;7.40;63.30;;;;;;5111795;28;20444;-66
2023/01/18 11:56:31;;;;;;;10.07;5.60;;;7.40;63.40;;;;;;5096802;28;20028;-66
2023/01/18 11:58:57;;;;;;;10.03;5.50;;;7.30;63.40;;;;;;5111408;28;20027;-66
2023/01/18 12:01:31;;;;;;;9.63;5.30;;;7.20;63.50;;;;;;5112470;28;20031;-66
2023/01/18 12:04:36;;;;;;;15.80;6.20;;;7.20;63.70;;;;;;5112956;28;20024;-69
2023/01/18 12:07:40;;;;;;;10.63;5.53;;;7.10;63.80;;;;;;5102071;28;20023;-68
2023/01/18 12:10:19;;;;;;;10.33;5.40;;;7.00;63.90;;;;;;5106971;28;20028;-66
2023/01/18 12:13:14;;;;;;;9.53;5.70;;;7.00;64.10;;;;;;5115217;28;20408;-67
2023/01/18 12:15:59;;;;;;;11.47;5.37;;;6.90;64.10;;;;;;5116441;27;20457;-67
2023/01/18 12:18:28;;;;;;;11.97;5.80;;;6.90;64.20;;;;;;5115354;28;20023;-67
2023/01/18 12:21:10;;;;;;;11.47;5.63;;;6.80;64.90;;;;;;5097559;28;20028;-66
2023/01/18 12:23:58;;;;;;;9.37;5.00;;;6.80;64.40;;;;;;5116772;28;20115;-65
2023/01/18 12:27:18;;;;;;;10.27;5.63;;;6.80;64.50;;;;;;5102516;28;20026;-66
2023/01/18 12:30:03;;;;;;;11.53;5.80;;;6.80;64.60;;;;;;5073067;28;20052;-66
2023/01/18 12:33:03;;;;;;;10.80;5.70;;;6.80;64.60;;;;;;5092112;28;20122;-66
2023/01/18 12:35:50;;;;;;;10.30;4.97;;;6.80;64.70;;;;;;5115337;28;20151;-66
2023/01/18 12:38:31;;;;;;;10.40;5.40;;;6.80;64.70;;;;;;5115933;28;20036;-68
2023/01/18 12:41:11;;;;;;;9.90;5.50;;;6.80;64.70;;;;;;5116452;28;20105;-66
2023/01/18 12:43:52;;;;;;;12.57;5.73;;;6.70;64.80;;;;;;5115136;28;20049;-66
2023/01/18 12:46:41;;;;;;;11.60;5.57;;;6.70;64.90;;;;;;5095260;28;20024;-66
2023/01/18 12:49:20;;;;;;;10.37;5.00;;;6.70;64.90;;;;;;5116659;28;20460;-66
2023/01/18 12:51:58;;;;;;;10.33;5.27;;;6.80;65.00;;;;;;5114593;28;20054;-65
2023/01/18 12:54:35;;;;;;;9.00;4.80;;;6.80;65.00;;;;;;5115329;28;20398;-67
2023/01/18 12:57:03;;;;;;;8.77;4.93;;;6.70;65.00;;;;;;5113904;28;20049;-66
2023/01/18 12:59:37;;;;;;;11.10;5.00;;;6.70;65.10;;;;;;5117338;27;20015;-66
2023/01/18 13:02:25;;;;;;;9.23;4.40;;;6.80;65.10;;;;;;5114912;28;20446;-66
2023/01/18 13:04:56;;;;;;;10.97;4.60;;;6.70;65.00;;;;;;5115613;28;20024;-66
2023/01/18 13:07:33;;;;;;;10.52;4.75;;;6.70;65.10;;;;;;5097014;28;20118;-66
2023/01/18 13:10:00;;;;;;;9.27;4.17;;;6.70;65.10;;;;;;5115423;28;20063;-66
2023/01/18 13:12:26;;;;;;;9.53;4.97;;;6.70;65.10;;;;;;5115390;28;20031;-67
2023/01/18 13:15:02;;;;;;;10.33;4.67;;;6.80;65.20;;;;;;5115135;28;20042;-66
2023/01/18 13:17:52;;;;;;;9.60;4.43;;;6.70;65.10;;;;;;5110402;28;20093;-67
2023/01/18 13:20:33;;;;;;;9.33;4.60;;;6.70;65.10;;;;;;5113493;28;20444;-67
2023/01/18 13:23:29;;;;;;;9.53;4.70;;;6.70;65.10;;;;;;5093690;28;20433;-68
2023/01/18 13:26:30;;;;;;;10.00;4.47;;;6.70;65.20;;;;;;5091961;28;20042;-69
2023/01/18 13:29:27;;;;;;;10.00;4.67;;;6.60;65.20;;;;;;5108023;28;20036;-68
2023/01/18 13:31:53;;;;;;;8.57;4.20;;;6.60;65.30;;;;;;5092335;28;20046;-67
2023/01/18 13:34:29;;;;;;;9.83;4.30;;;6.70;65.40;;;;;;5097086;28;20055;-67
2023/01/18 13:36:56;;;;;;;8.40;3.70;;;6.60;65.30;;;;;;5111894;28;20532;-69
2023/01/18 13:39:23;;;;;;;9.03;4.97;;;6.60;65.30;;;;;;5112154;28;20020;-67
2023/01/18 13:42:01;;;;;;;8.57;4.73;;;6.70;65.40;;;;;;5087743;28;20502;-67
2023/01/18 13:44:36;;;;;;;8.20;4.17;;;6.70;65.30;;;;;;5114153;28;20023;-69
2023/01/18 13:47:34;;;;;;;9.90;4.63;;;6.70;65.40;;;;;;5113271;28;20160;-68